Time;durP1;ratioP1;P1;durP2;ratioP2;P2;SDS_P1;SDS_P2;PMS_P1;PMS_P2;Temp;Humidity;BMP_temperature;BMP_pressure;BME280_temperature;BME280_humidity;BME280_pressure;Samples;Min_cycle;Max_cycle;Signal;HPM_P1;HPM_P2
2022/01/12 00:01:10;;;;;;;131.90;49.83;;;;;;;-1.94;76.20;101116.24;1731246;82;21032;-39
2022/01/12 00:03:36;;;;;;;122.28;50.95;;;;;;;-1.98;76.39;101117.01;1730944;83;20984;-39
2022/01/12 00:06:04;;;;;;;120.87;49.18;;;;;;;-1.96;76.54;101117.91;1730973;83;21035;-39
2022/01/12 00:08:31;;;;;;;110.72;48.95;;;;;;;-1.96;76.51;101111.47;1730942;82;21032;-39
2022/01/12 00:11:00;;;;;;;109.40;49.55;;;;;;;-1.92;76.51;101117.58;1731020;82;20991;-39
2022/01/12 00:13:27;;;;;;;129.57;53.60;;;;;;;-1.81;76.23;101125.58;1730052;82;21024;-38
2022/01/12 00:15:53;;;;;;;120.50;51.83;;;;;;;-1.80;76.13;101115.70;1730989;83;20973;-38
2022/01/12 00:18:20;;;;;;;125.18;51.70;;;;;;;-1.88;75.88;101120.67;1730960;83;20985;-39
2022/01/12 00:20:47;;;;;;;;;;;;;;;-1.94;76.13;101123.12;1733530;83;21121;-38
2022/01/12 00:23:15;;;;;;;118.70;48.55;;;;;;;-1.98;76.31;101120.88;1731316;83;20119;-39
2022/01/12 00:33:42;;;;;;;140.20;55.00;;;;;;;-1.88;75.77;101112.08;1730966;83;21015;-39
2022/01/12 00:36:08;;;;;;;137.00;54.33;;;;;;;-1.79;75.73;101113.59;1731038;83;21529;-39
2022/01/12 00:38:34;;;;;;;129.03;51.63;;;;;;;-1.81;75.77;101112.69;1730990;82;21892;-39
2022/01/12 00:41:00;;;;;;;134.55;54.23;;;;;;;-1.83;76.05;101106.20;1730959;83;20988;-39
2022/01/12 00:43:28;;;;;;;132.75;52.17;;;;;;;-1.80;75.88;101105.39;1730953;83;20984;-39
2022/01/12 00:45:54;;;;;;;116.70;51.10;;;;;;;-1.79;75.82;101109.72;1730724;83;21024;-38
2022/01/12 00:48:20;;;;;;;127.93;50.43;;;;;;;-1.77;75.68;101105.47;1731187;83;21004;-39
2022/01/12 00:50:47;;;;;;;125.40;50.58;;;;;;;-1.78;75.30;101109.77;1731043;82;21442;-38
2022/01/12 00:53:14;;;;;;;129.82;52.35;;;;;;;-1.76;75.40;101114.97;1731291;83;21584;-39
2022/01/12 00:55:40;;;;;;;118.97;48.58;;;;;;;-1.79;75.74;101118.75;1726871;82;21005;-39
2022/01/12 00:58:06;;;;;;;128.43;52.37;;;;;;;-1.76;75.86;101111.95;1726555;83;21000;-38
2022/01/12 01:00:32;;;;;;;121.90;51.48;;;;;;;-1.75;75.74;101116.30;1726275;83;21024;-39
2022/01/12 01:02:59;;;;;;;128.57;52.08;;;;;;;-1.76;75.75;101117.12;1726278;83;20987;-38
2022/01/12 01:05:27;;;;;;;138.28;55.23;;;;;;;-1.75;75.72;101120.56;1726208;83;21019;-39
2022/01/12 01:07:54;;;;;;;156.55;61.68;;;;;;;-1.80;75.83;101126.02;1726321;83;21019;-39
2022/01/12 01:11:23;;;;;;;138.57;55.75;;;;;;;-1.80;76.10;101114.41;1726312;83;21501;-39
2022/01/12 01:12:57;;;;;;;140.35;54.13;;;;;;;-1.76;75.96;101126.14;1708781;83;21026;-38
2022/01/12 01:15:40;;;;;;;132.25;51.40;;;;;;;-1.75;76.35;101114.11;1726271;83;20992;-39
2022/01/12 01:25:52;;;;;;;125.30;52.15;;;;;;;-1.81;76.32;101117.41;1694439;83;20980;-39
2022/01/12 01:28:18;;;;;;;121.77;52.85;;;;;;;-1.79;76.14;101120.03;1726342;83;20980;-39
2022/01/12 01:30:45;;;;;;;130.93;51.65;;;;;;;-1.78;76.17;101109.77;1726390;83;21019;-39
2022/01/12 01:33:15;;;;;;;121.17;51.92;;;;;;;-1.78;76.47;101115.34;1726402;83;20992;-39
2022/01/12 01:35:55;;;;;;;129.53;52.00;;;;;;;-1.75;76.18;101115.40;1726192;83;20981;-39
2022/01/12 01:38:16;;;;;;;119.17;47.90;;;;;;;-1.68;75.67;101120.30;1724862;83;20969;-38
2022/01/12 01:40:43;;;;;;;113.80;50.03;;;;;;;-1.60;75.52;101114.49;1726508;83;20992;-39
2022/01/12 01:54:03;;;;;;;124.55;50.83;;;;;;;-1.55;75.01;101119.74;1726678;83;21040;-39
2022/01/12 01:56:30;;;;;;;125.20;50.95;;;;;;;-1.56;75.12;101111.56;1731040;83;21042;-39
2022/01/12 01:58:57;;;;;;;138.47;51.90;;;;;;;-1.58;75.25;101115.39;1731058;83;20992;-39
2022/01/12 02:01:23;;;;;;;128.70;51.50;;;;;;;-1.52;75.45;101113.80;1730961;83;20975;-39
2022/01/12 02:03:49;;;;;;;117.82;50.03;;;;;;;-1.48;75.40;101114.32;1730938;82;20992;-39
2022/01/12 02:06:16;;;;;;;118.93;49.18;;;;;;;-1.46;75.12;101110.92;1730813;83;20972;-39
2022/01/12 02:08:42;;;;;;;120.67;51.20;;;;;;;-1.48;74.64;101110.45;1730956;83;20964;-38
2022/01/12 02:11:08;;;;;;;113.20;49.53;;;;;;;-1.49;74.60;101112.17;1730928;83;21498;-39
2022/01/12 02:13:34;;;;;;;121.02;49.67;;;;;;;-1.54;74.89;101108.60;1730895;82;21041;-40
2022/01/12 02:16:00;;;;;;;120.82;47.93;;;;;;;-1.56;74.94;101109.84;1730847;83;21016;-39
2022/01/12 02:53:52;;;;;;;105.87;44.80;;;;;;;-1.48;74.30;101108.73;1761788;81;20951;-39
2022/01/12 02:56:27;;;;;;;100.80;43.78;;;;;;;-1.50;74.14;101107.83;1761729;81;20983;-38
2022/01/12 02:58:56;;;;;;;109.80;44.35;;;;;;;-1.46;74.07;101106.19;1761184;81;20987;-39
2022/01/12 03:04:07;;;;;;;110.35;45.90;;;;;;;-1.48;74.10;101100.12;1761794;81;20980;-39
2022/01/12 03:06:38;;;;;;;103.80;44.95;;;;;;;-1.48;74.38;101101.41;1761813;81;21023;-39
2022/01/12 03:09:06;;;;;;;105.72;43.83;;;;;;;-1.44;74.51;101101.93;1761683;80;21078;-39
2022/01/12 03:11:35;;;;;;;100.53;43.23;;;;;;;-1.44;74.20;101104.52;1761843;80;20967;-39
2022/01/12 03:14:01;;;;;;;105.03;43.35;;;;;;;-1.44;74.08;101105.38;1761750;81;20979;-39
2022/01/12 03:16:29;;;;;;;104.83;43.70;;;;;;;-1.45;74.06;101097.63;1761788;81;20995;-38
2022/01/12 03:18:57;;;;;;;;;;;;;;;-1.45;74.02;101103.65;1764365;81;21441;-39
2022/01/12 03:21:27;;;;;;;113.50;46.80;;;;;;;-1.53;74.23;101100.44;1761688;81;20112;-39
2022/01/12 03:23:54;;;;;;;106.15;45.15;;;;;;;-1.47;74.13;101102.75;1761786;80;20991;-39
2022/01/12 03:26:22;;;;;;;102.05;45.80;;;;;;;-1.42;74.17;101100.25;1761931;80;21484;-39
2022/01/12 03:28:53;;;;;;;96.47;41.92;;;;;;;-1.40;74.05;101092.13;1761769;81;21015;-38
2022/01/12 03:31:20;;;;;;;92.42;40.70;;;;;;;-1.42;73.74;101093.41;1761307;81;20975;-39
2022/01/12 03:33:57;;;;;;;100.07;41.90;;;;;;;-1.39;73.37;101092.16;1761466;81;20975;-39
2022/01/12 04:08:21;;;;;;;74.42;31.42;;;;;;;-1.50;71.05;101102.66;1761473;81;21480;-38
2022/01/12 04:10:54;;;;;;;79.25;33.60;;;;;;;-1.60;70.46;101101.59;1761452;81;20995;-38
2022/01/12 04:13:23;;;;;;;81.22;34.08;;;;;;;-1.54;70.32;101098.28;1761439;80;20990;-38
2022/01/12 04:15:56;;;;;;;75.17;31.68;;;;;;;-1.52;70.47;101099.19;1744734;81;20971;-38
2022/01/12 04:18:22;;;;;;;69.45;30.57;;;;;;;-1.50;70.09;101098.80;1761487;81;21489;-39
2022/01/12 04:20:50;;;;;;;63.95;28.40;;;;;;;-1.51;69.64;101097.47;1761438;81;20968;-38
2022/01/12 04:23:22;;;;;;;68.78;28.67;;;;;;;-1.50;69.82;101104.39;1761370;81;21007;-39
2022/01/12 04:25:58;;;;;;;58.68;24.47;;;;;;;-1.50;69.56;101105.25;1761415;81;21547;-39
2022/01/12 04:28:28;;;;;;;62.37;27.70;;;;;;;-1.61;68.38;101107.58;1761786;81;21031;-39
2022/01/12 04:30:56;;;;;;;55.12;25.23;;;;;;;-1.55;68.89;101106.84;1761424;81;21034;-39
2022/01/12 04:33:23;;;;;;;58.95;26.40;;;;;;;-1.57;68.49;101112.39;1761452;81;21775;-39
2022/01/12 04:35:54;;;;;;;55.65;25.62;;;;;;;-1.49;68.83;101107.40;1761589;81;20992;-39
2022/01/12 04:38:28;;;;;;;53.42;24.20;;;;;;;-1.50;68.31;101109.55;1761399;81;21483;-39
2022/01/12 04:40:55;;;;;;;53.87;24.90;;;;;;;-1.47;68.34;101109.62;1761451;81;20963;-39
2022/01/12 04:43:24;;;;;;;52.87;24.80;;;;;;;-1.53;67.67;101100.44;1761654;81;21500;-39
2022/01/12 04:48:33;;;;;;;71.30;29.83;;;;;;;-1.42;68.52;101101.55;1761737;81;20972;-39
2022/01/12 04:50:48;;;;;;;72.55;29.50;;;;;;;-1.37;68.68;101098.66;1759609;80;20968;-39
2022/01/12 04:53:15;;;;;;;71.42;31.20;;;;;;;-1.39;68.46;101092.59;1761611;80;21445;-39
2022/01/12 04:55:42;;;;;;;68.12;30.50;;;;;;;-1.42;68.89;101092.12;1761651;81;21042;-38
2022/01/12 04:58:09;;;;;;;67.35;30.02;;;;;;;-1.43;68.91;101093.37;1761552;80;20968;-38
2022/01/12 05:00:37;;;;;;;73.37;30.27;;;;;;;-1.42;68.76;101097.67;1761587;81;21491;-39
2022/01/12 05:13:50;;;;;;;54.63;25.05;;;;;;;-1.46;68.09;101104.47;1761395;80;20975;-38
2022/01/12 05:16:17;;;;;;;56.30;24.77;;;;;;;-1.38;68.34;101093.06;1761428;81;20995;-39
2022/01/12 05:18:46;;;;;;;61.33;26.07;;;;;;;-1.44;67.77;101089.03;1761655;81;21459;-38
2022/01/12 05:21:12;;;;;;;56.25;25.10;;;;;;;-1.50;67.49;101090.19;1761396;81;21124;-39
2022/01/12 05:23:38;;;;;;;54.83;26.40;;;;;;;-1.48;67.65;101091.95;1761380;80;20988;-38
2022/01/12 05:26:05;;;;;;;60.35;26.40;;;;;;;-1.44;67.75;101084.73;1761450;81;20985;-39
2022/01/12 05:28:32;;;;;;;63.23;26.12;;;;;;;-1.39;68.10;101087.43;1761633;81;20999;-39
2022/01/12 05:30:59;;;;;;;66.70;26.45;;;;;;;-1.33;67.91;101083.68;1761570;81;21031;-39
2022/01/12 05:33:27;;;;;;;61.92;26.82;;;;;;;-1.43;67.76;101083.05;1761625;81;20955;-39
2022/01/12 05:35:56;;;;;;;60.03;26.40;;;;;;;-1.47;67.84;101083.82;1761427;81;20991;-39
2022/01/12 05:38:22;;;;;;;62.85;26.15;;;;;;;-1.46;68.11;101086.41;1761420;80;20990;-39
2022/01/12 05:40:55;;;;;;;56.73;25.32;;;;;;;-1.45;67.96;101091.17;1761476;81;20986;-38
2022/01/12 05:43:25;;;;;;;62.38;26.45;;;;;;;-1.38;67.94;101093.92;1752138;80;21056;-38
2022/01/12 05:45:51;;;;;;;63.13;27.60;;;;;;;-1.39;67.51;101092.16;1747890;81;20984;-39
2022/01/12 05:50:46;;;;;;;63.63;29.35;;;;;;;-1.39;67.78;101090.87;1748013;81;20973;-38
2022/01/12 05:53:11;;;;;;;64.25;27.75;;;;;;;-1.41;67.90;101098.14;1747935;81;21568;-39
2022/01/12 05:55:36;;;;;;;69.58;28.50;;;;;;;-1.37;68.14;101106.39;1748133;81;21023;-38
2022/01/12 05:58:02;;;;;;;67.42;29.52;;;;;;;-1.36;67.91;101106.86;1748109;81;21032;-39
2022/01/12 06:00:30;;;;;;;75.95;30.92;;;;;;;-1.49;67.98;101107.01;1748113;81;21043;-38
2022/01/12 06:02:56;;;;;;;68.52;28.60;;;;;;;-1.47;68.36;101102.75;1748034;81;20977;-39
2022/01/12 06:05:23;;;;;;;71.70;31.37;;;;;;;-1.44;68.64;101101.93;1748096;81;21017;-38
2022/01/12 06:07:51;;;;;;;69.95;30.23;;;;;;;-1.45;68.42;101095.05;1748242;81;20964;-38
2022/01/12 06:10:22;;;;;;;71.28;28.75;;;;;;;-1.42;68.29;101098.97;1748098;81;21028;-38
2022/01/12 06:12:47;;;;;;;64.77;27.90;;;;;;;-1.41;68.27;101098.14;1747894;81;21015;-39
2022/01/12 06:15:13;;;;;;;59.70;27.58;;;;;;;-1.64;67.94;101097.17;1748021;81;21024;-39
2022/01/12 06:17:38;;;;;;;65.85;29.25;;;;;;;-1.64;68.49;101102.33;1748009;81;20987;-38
2022/01/12 06:20:08;;;;;;;64.45;27.17;;;;;;;-1.64;68.49;101102.33;1748158;81;20992;-38
2022/01/12 06:22:36;;;;;;;63.92;28.02;;;;;;;-1.56;68.46;101107.70;1747979;81;21465;-38
2022/01/12 06:25:05;;;;;;;;;;;;;;;-1.51;68.60;101111.27;1750667;81;20976;-38
2022/01/12 06:27:32;;;;;;;68.30;29.27;;;;;;;-1.57;68.27;101117.55;1747989;81;20413;-39
2022/01/12 06:31:10;;;;;;;;;;;;;;;-1.55;68.44;101118.06;1750659;81;20953;-39
2022/01/12 06:32:32;;;;;;;78.57;32.48;;;;;;;-1.54;68.68;101118.92;1746272;82;20113;-38
2022/01/12 06:34:58;;;;;;;81.45;35.43;;;;;;;-1.52;69.09;101117.25;1748081;81;21440;-39
2022/01/12 06:37:24;;;;;;;90.70;37.58;;;;;;;-1.52;69.14;101115.09;1748095;82;20996;-39
2022/01/12 06:39:50;;;;;;;86.70;35.88;;;;;;;-1.52;69.28;101117.67;1748113;81;20991;-39
2022/01/12 06:42:16;;;;;;;88.17;38.08;;;;;;;-1.50;69.50;101127.61;1749429;81;21019;-39
2022/01/12 06:44:42;;;;;;;88.45;36.48;;;;;;;-1.48;69.44;101119.48;1761368;81;20995;-39
2022/01/12 06:47:08;;;;;;;86.67;38.40;;;;;;;-1.50;69.64;101124.60;1761315;81;21033;-40
2022/01/12 06:49:34;;;;;;;89.95;36.98;;;;;;;-1.46;69.63;101131.99;1761308;80;20994;-39
2022/01/12 06:52:00;;;;;;;87.50;35.65;;;;;;;-1.47;69.79;101138.01;1761364;80;20985;-40
2022/01/12 06:54:27;;;;;;;89.55;36.93;;;;;;;-1.46;69.57;101143.61;1761387;81;20991;-39
2022/01/12 06:56:53;;;;;;;80.72;38.05;;;;;;;-1.48;69.60;101143.99;1761324;80;21469;-39
2022/01/12 06:59:19;;;;;;;98.52;40.12;;;;;;;-1.44;69.89;101146.66;1761364;81;20967;-39
2022/01/12 07:01:45;;;;;;;127.02;46.73;;;;;;;-1.46;70.03;101153.93;1761430;81;20979;-39
2022/01/12 07:04:11;;;;;;;95.92;41.95;;;;;;;-1.52;70.46;101136.59;1761271;81;20991;-39
2022/01/12 07:06:37;;;;;;;95.10;37.60;;;;;;;-1.45;70.31;101141.06;1761370;81;20992;-39
2022/01/12 07:09:04;;;;;;;89.03;39.73;;;;;;;-1.45;70.09;101142.78;1761320;81;21626;-39
2022/01/12 07:11:30;;;;;;;98.45;40.95;;;;;;;-1.45;70.26;101141.06;1761545;81;20960;-39
2022/01/12 07:13:56;;;;;;;87.08;38.92;;;;;;;-1.48;70.34;101150.02;1761346;81;21465;-39
2022/01/12 07:16:23;;;;;;;82.57;35.33;;;;;;;-1.49;70.49;101144.42;1761433;80;20991;-38
2022/01/12 07:18:48;;;;;;;93.42;37.42;;;;;;;-1.46;70.48;101147.05;1761296;80;21574;-39
2022/01/12 07:21:15;;;;;;;83.35;35.40;;;;;;;-1.39;70.27;101145.50;1761352;81;20967;-38
2022/01/12 07:23:40;;;;;;;77.62;34.23;;;;;;;-1.46;70.33;101142.31;1761515;81;20967;-39
2022/01/12 07:26:07;;;;;;;88.25;35.88;;;;;;;-1.41;70.17;101140.72;1761355;81;21041;-39
2022/01/12 07:28:33;;;;;;;82.60;35.03;;;;;;;-1.37;70.24;101146.40;1761415;81;21456;-39
2022/01/12 07:30:59;;;;;;;80.45;34.58;;;;;;;-1.33;70.20;101143.05;1761483;81;21488;-38
2022/01/12 07:33:25;;;;;;;77.55;34.00;;;;;;;-1.30;70.08;101149.58;1761413;81;20972;-38
2022/01/12 07:35:52;;;;;;;81.47;35.55;;;;;;;-1.30;69.90;101146.13;1761975;81;20987;-39
2022/01/12 07:38:18;;;;;;;78.47;34.65;;;;;;;-1.30;69.82;101145.70;1761718;81;20959;-39
2022/01/12 07:40:44;;;;;;;81.15;35.25;;;;;;;-1.28;70.03;101138.86;1761484;81;21472;-39
2022/01/12 07:43:11;;;;;;;81.65;35.35;;;;;;;-1.27;69.89;101129.44;1761433;81;21015;-40
2022/01/12 07:45:37;;;;;;;89.67;35.70;;;;;;;-1.25;69.95;101138.94;1761615;81;21123;-40
2022/01/12 07:48:04;;;;;;;91.25;37.33;;;;;;;-1.14;70.08;101143.05;1761419;81;21027;-40
2022/01/12 07:50:30;;;;;;;85.38;37.08;;;;;;;-1.14;70.08;101143.05;1761579;81;21484;-40
2022/01/12 07:52:56;;;;;;;94.42;38.78;;;;;;;-1.07;70.19;101154.41;1761460;81;21034;-39
2022/01/12 07:55:24;;;;;;;84.17;38.35;;;;;;;-1.01;70.03;101151.52;1761450;81;21023;-39
2022/01/12 07:57:51;;;;;;;;;;;;;;;-0.97;69.91;101148.58;1764104;81;21031;-41
2022/01/12 08:00:20;;;;;;;90.70;40.12;;;;;;;-0.98;69.87;101149.44;1761526;81;20128;-40
2022/01/12 08:02:46;;;;;;;91.70;39.98;;;;;;;-0.98;69.96;101141.69;1761497;81;20987;-39
2022/01/12 08:05:13;;;;;;;83.15;36.10;;;;;;;-0.94;70.05;101140.91;1761594;81;20995;-39
2022/01/12 08:07:40;;;;;;;87.40;38.83;;;;;;;-0.88;69.64;101142.75;1761660;80;21441;-39
2022/01/12 08:10:08;;;;;;;84.57;37.17;;;;;;;-0.87;69.77;101134.17;1761739;81;20972;-39
2022/01/12 08:12:34;;;;;;;79.00;36.08;;;;;;;-0.88;69.58;101138.87;1761448;80;20994;-40
2022/01/12 08:15:01;;;;;;;90.77;38.13;;;;;;;-0.92;69.72;101140.52;1761671;81;21484;-39
2022/01/12 08:17:26;;;;;;;80.65;36.58;;;;;;;-0.89;69.37;101140.59;1761437;81;21003;-40
2022/01/12 08:19:55;;;;;;;81.12;35.65;;;;;;;-0.92;69.26;101141.80;1761509;81;20960;-39
2022/01/12 08:22:20;;;;;;;;;;;;;;;-0.91;69.50;101148.73;1763920;81;21450;-40
2022/01/12 08:24:46;;;;;;;89.20;39.03;;;;;;;-0.92;69.53;101154.72;1761447;81;20108;-40
2022/01/12 08:27:11;;;;;;;77.82;35.25;;;;;;;-0.93;69.65;101154.69;1761487;81;21353;-39
2022/01/12 08:29:38;;;;;;;81.50;36.00;;;;;;;-0.92;69.65;101156.02;1761372;81;21400;-40
2022/01/12 08:32:05;;;;;;;83.72;37.28;;;;;;;-0.93;69.55;101151.67;1719794;81;21520;-40
2022/01/12 08:34:30;;;;;;;86.85;38.45;;;;;;;-0.90;69.63;101149.16;1761588;81;20990;-40
2022/01/12 08:36:56;;;;;;;81.50;37.28;;;;;;;-0.93;69.61;101145.64;1761420;81;20979;-40
2022/01/12 08:39:22;;;;;;;88.27;37.55;;;;;;;-0.96;69.75;101146.46;1761424;81;20988;-39
2022/01/12 08:41:49;;;;;;;91.22;36.08;;;;;;;-0.93;69.80;101141.77;1761549;81;21467;-39
2022/01/12 08:44:15;;;;;;;79.50;35.45;;;;;;;-0.92;70.00;101139.22;1740800;81;21051;-39
2022/01/12 08:46:41;;;;;;;82.15;34.75;;;;;;;-0.85;69.83;101128.61;1758239;81;20987;-39
2022/01/12 08:49:08;;;;;;;77.95;35.35;;;;;;;-0.85;69.57;101125.60;1758203;81;20968;-39
2022/01/12 08:51:36;;;;;;;84.00;35.80;;;;;;;-0.86;69.37;101127.72;1758380;81;20983;-39
2022/01/12 08:54:03;;;;;;;83.40;37.08;;;;;;;-0.79;69.49;101120.98;1758334;81;21306;-39
2022/01/12 08:56:29;;;;;;;;;;;;;;;-0.78;69.40;101122.30;1760835;81;20991;-40
2022/01/12 08:58:55;;;;;;;80.83;33.70;;;;;;;-0.92;69.13;101125.02;1758090;81;20602;-39
2022/01/12 09:01:20;;;;;;;81.25;34.45;;;;;;;-0.96;69.16;101129.67;1758264;81;20964;-39
2022/01/12 09:03:48;;;;;;;81.85;36.20;;;;;;;-0.90;69.40;101128.50;1758235;81;21030;-39
2022/01/12 09:06:14;;;;;;;72.85;32.60;;;;;;;-0.85;69.41;101123.02;1758419;81;21437;-40
2022/01/12 09:08:41;;;;;;;78.33;34.75;;;;;;;-0.96;68.95;101120.64;1758332;81;21014;-39
2022/01/12 09:11:08;;;;;;;87.22;35.90;;;;;;;-1.03;69.61;101138.13;1758329;80;21039;-40
2022/01/12 09:13:35;;;;;;;86.70;37.85;;;;;;;-0.95;69.69;101128.81;1758266;81;20999;-39
2022/01/12 09:16:06;;;;;;;76.72;37.48;;;;;;;-0.93;69.78;101121.11;1758297;81;20991;-39
2022/01/12 09:18:29;;;;;;;82.33;37.30;;;;;;;-0.92;69.61;101110.81;1757805;81;21627;-38
2022/01/12 09:20:56;;;;;;;76.90;34.83;;;;;;;-0.93;69.50;101110.34;1758354;81;20971;-39
2022/01/12 09:23:22;;;;;;;87.02;36.65;;;;;;;-0.96;69.61;101109.02;1758263;81;20963;-39
2022/01/12 09:25:48;;;;;;;83.47;36.63;;;;;;;-0.90;69.66;101111.72;1758119;81;20991;-39
2022/01/12 09:28:14;;;;;;;86.10;37.58;;;;;;;-0.90;69.89;101103.11;1758149;81;21429;-39
2022/01/12 09:30:40;;;;;;;86.20;38.73;;;;;;;-0.85;69.85;101099.77;1758175;80;20987;-39
2022/01/12 09:33:06;;;;;;;88.20;39.30;;;;;;;-0.91;69.91;101106.12;1758132;80;20987;-39
2022/01/12 09:35:32;;;;;;;92.20;38.30;;;;;;;-0.87;69.99;101109.20;1758275;80;20995;-39
2022/01/12 09:37:58;;;;;;;87.27;36.73;;;;;;;-0.85;69.91;101111.39;1758157;81;20968;-39
2022/01/12 09:40:24;;;;;;;88.45;39.53;;;;;;;-0.80;69.72;101117.92;1758232;80;20995;-40
2022/01/12 09:42:49;;;;;;;97.02;39.48;;;;;;;-0.83;69.95;101111.00;1758116;81;21560;-40
2022/01/12 09:45:19;;;;;;;103.30;43.80;;;;;;;-0.82;69.81;101110.17;1748223;80;21536;-39
2022/01/12 09:47:47;;;;;;;90.72;39.05;;;;;;;-0.89;70.05;101105.72;1748086;81;20964;-40
2022/01/12 09:50:21;;;;;;;88.17;38.55;;;;;;;-0.82;70.13;101101.53;1748068;81;21035;-40
2022/01/12 09:52:47;;;;;;;94.62;39.78;;;;;;;-0.79;69.99;101097.30;1748113;81;21023;-39
2022/01/12 09:55:13;;;;;;;98.75;41.40;;;;;;;-0.74;69.97;101097.84;1748015;81;20995;-40
2022/01/12 09:57:39;;;;;;;96.00;41.28;;;;;;;-0.74;69.86;101088.80;1748019;81;21030;-39
2022/01/12 10:00:07;;;;;;;82.15;37.80;;;;;;;-0.73;69.91;101087.94;1748089;81;20979;-40
2022/01/12 10:02:32;;;;;;;;;;;;;;;-0.72;69.97;101093.13;1750641;81;20988;-40
2022/01/12 10:05:08;;;;;;;91.22;40.25;;;;;;;-0.79;69.79;101089.55;1748045;81;20125;-39
2022/01/12 10:07:34;;;;;;;90.00;41.70;;;;;;;-0.86;70.17;101082.52;1747958;81;21039;-40
2022/01/12 10:10:04;;;;;;;99.07;40.35;;;;;;;-0.80;70.28;101076.20;1748082;82;21027;-39
2022/01/12 10:12:31;;;;;;;85.87;41.13;;;;;;;-0.75;70.09;101084.45;1748104;81;21563;-40
2022/01/12 10:15:01;;;;;;;93.87;42.00;;;;;;;-0.74;70.24;101084.48;1748253;81;20992;-40
2022/01/12 10:17:37;;;;;;;91.78;41.28;;;;;;;-0.78;70.14;101083.98;1748014;81;21519;-40
2022/01/12 10:20:19;;;;;;;95.77;41.50;;;;;;;-0.72;70.26;101089.69;1748076;81;20984;-40
2022/01/12 10:23:01;;;;;;;97.12;42.48;;;;;;;-0.68;70.36;101083.73;1746642;81;20979;-41
2022/01/12 10:25:30;;;;;;;94.22;39.23;;;;;;;-0.61;70.40;101086.89;1743918;81;20948;-40
2022/01/12 10:27:59;;;;;;;82.10;37.53;;;;;;;-0.64;70.08;101077.77;1737176;82;21478;-40
2022/01/12 10:30:30;;;;;;;92.22;38.80;;;;;;;-0.60;69.75;101076.59;1737071;82;20999;-40
2022/01/12 10:33:05;;;;;;;76.57;36.33;;;;;;;-0.53;69.80;101080.13;1737206;81;20983;-39
2022/01/12 10:35:39;;;;;;;81.00;36.93;;;;;;;-0.65;69.55;101076.05;1737214;81;20999;-39
2022/01/12 10:38:15;;;;;;;85.42;36.58;;;;;;;-0.56;69.85;101076.22;1737169;81;21488;-39
2022/01/12 10:40:51;;;;;;;91.53;37.60;;;;;;;-0.42;69.80;101087.69;1737235;82;21007;-39
2022/01/12 10:43:42;;;;;;;94.03;39.78;;;;;;;-0.38;69.81;101088.62;1737369;81;20995;-39
2022/01/12 10:46:14;;;;;;;81.10;37.17;;;;;;;-0.41;69.79;101085.97;1756094;80;20995;-39
2022/01/12 10:48:49;;;;;;;90.38;39.13;;;;;;;-0.33;69.33;101080.92;1755841;82;21479;-39
2022/01/12 10:51:27;;;;;;;88.10;39.30;;;;;;;-0.25;69.35;101083.25;1755888;80;20998;-39
2022/01/12 10:53:58;;;;;;;97.60;38.83;;;;;;;-0.16;69.31;101078.23;1755857;80;21506;-40
2022/01/12 10:56:24;;;;;;;92.65;39.40;;;;;;;-0.08;69.19;101070.16;1755521;82;20959;-39
2022/01/12 10:58:54;;;;;;;95.10;40.65;;;;;;;-0.05;68.97;101066.78;1755423;82;21002;-39
2022/01/12 11:01:25;;;;;;;93.47;39.98;;;;;;;0.04;69.16;101064.73;1754583;80;21069;-40
2022/01/12 11:03:51;;;;;;;89.00;40.17;;;;;;;0.13;68.65;101063.19;1756083;80;20974;-40
2022/01/12 11:06:17;;;;;;;96.72;41.55;;;;;;;0.17;68.35;101053.76;1756274;82;21470;-40
2022/01/12 11:08:47;;;;;;;89.97;42.13;;;;;;;0.10;68.44;101054.51;1756099;82;20966;-38
2022/01/12 11:11:12;;;;;;;92.70;42.62;;;;;;;0.23;68.38;101055.56;1755785;81;21401;-39
2022/01/12 11:13:37;;;;;;;103.47;47.13;;;;;;;0.29;68.48;101047.88;1756068;82;21002;-40
2022/01/12 11:16:04;;;;;;;115.55;52.17;;;;;;;0.36;68.26;101038.96;1755974;80;21026;-39
2022/01/12 11:18:34;;;;;;;100.97;45.45;;;;;;;0.35;68.39;101042.38;1756378;82;21041;-40
2022/01/12 11:21:22;;;;;;;102.00;46.73;;;;;;;0.34;68.05;101043.22;1756050;82;21013;-40
2022/01/12 11:23:52;;;;;;;108.07;45.83;;;;;;;0.41;68.39;101041.59;1756173;82;20994;-40
2022/01/12 11:26:31;;;;;;;99.20;46.90;;;;;;;0.38;68.18;101035.97;1755211;82;21100;-40
2022/01/12 11:28:58;;;;;;;109.87;47.53;;;;;;;0.50;68.30;101035.69;1755606;82;21077;-40
2022/01/12 11:31:31;;;;;;;113.72;52.93;;;;;;;0.44;68.41;101035.58;1754966;82;21335;-40
2022/01/12 11:33:57;;;;;;;122.50;56.08;;;;;;;0.37;68.55;101039.82;1755657;81;21035;-39
2022/01/12 11:36:39;;;;;;;126.92;59.20;;;;;;;0.40;68.66;101038.98;1755217;81;21025;-40
2022/01/12 11:39:09;;;;;;;132.20;57.40;;;;;;;0.36;68.72;101041.55;1754828;82;21026;-38
2022/01/12 11:41:43;;;;;;;131.45;59.73;;;;;;;0.31;68.72;101041.91;1755088;82;21088;-40
2022/01/12 11:44:28;;;;;;;141.18;62.13;;;;;;;0.19;68.97;101040.42;1749633;80;21585;-40
2022/01/12 11:46:56;;;;;;;138.57;62.95;;;;;;;0.21;69.30;101042.59;1737061;80;21094;-38
2022/01/12 11:49:36;;;;;;;144.97;63.87;;;;;;;0.30;69.56;101038.85;1737348;81;20995;-39
2022/01/12 11:52:29;;;;;;;140.00;62.05;;;;;;;0.34;69.42;101024.23;1737074;81;21496;-40
2022/01/12 11:55:17;;;;;;;138.22;62.62;;;;;;;0.35;69.51;101022.97;1737172;82;21505;-40
2022/01/12 11:57:52;;;;;;;155.55;63.98;;;;;;;0.35;69.47;101007.45;1665825;86;21360;-40
2022/01/12 12:00:29;;;;;;;135.00;61.35;;;;;;;0.35;69.47;100999.69;1665719;86;21578;-39
2022/01/12 12:02:52;;;;;;;138.00;63.20;;;;;;;0.44;69.50;101003.23;1665085;86;21078;-39
2022/01/12 12:05:23;;;;;;;138.22;63.48;;;;;;;0.49;69.15;101004.17;1666153;86;21145;-39
2022/01/12 12:07:55;;;;;;;139.25;63.02;;;;;;;0.45;69.18;100999.80;1665987;86;21049;-40
2022/01/12 12:10:25;;;;;;;146.85;64.20;;;;;;;0.62;69.08;101007.38;1667197;86;21519;-40
2022/01/12 12:12:54;;;;;;;138.60;63.35;;;;;;;0.62;68.65;101004.80;1665632;86;21066;-40
2022/01/12 12:15:23;;;;;;;139.55;63.50;;;;;;;0.69;68.64;101016.08;1666296;86;20999;-39
2022/01/12 12:17:53;;;;;;;141.30;67.53;;;;;;;0.66;68.43;101014.33;1666426;86;21031;-39
2022/01/12 12:20:23;;;;;;;138.85;64.45;;;;;;;0.54;68.65;101016.31;1666249;86;21058;-41
2022/01/12 12:22:50;;;;;;;214.20;89.47;;;;;;;0.55;68.68;101019.80;1674678;84;21075;-40
2022/01/12 12:25:25;;;;;;;145.50;68.20;;;;;;;0.41;68.79;101012.27;1676784;85;21933;-39
2022/01/12 12:27:59;;;;;;;146.50;66.45;;;;;;;0.32;68.89;101006.09;1677326;84;21054;-40
2022/01/12 12:30:28;;;;;;;150.53;68.50;;;;;;;0.24;69.08;101005.14;1677388;85;21512;-40
2022/01/12 12:32:59;;;;;;;149.97;67.35;;;;;;;0.15;69.89;100995.95;1693312;82;21003;-40
2022/01/12 12:35:29;;;;;;;136.82;63.45;;;;;;;0.22;69.74;100980.97;1745290;82;21011;-40
2022/01/12 12:37:59;;;;;;;141.70;64.75;;;;;;;0.32;69.55;100981.95;1745354;81;21594;-38
2022/01/12 12:40:36;;;;;;;138.50;65.03;;;;;;;0.25;69.66;100980.13;1744112;82;20967;-39
2022/01/12 12:43:05;;;;;;;;;;;;;;;0.17;69.52;100977.44;1748399;82;21071;-39
2022/01/12 12:45:46;;;;;;;151.22;65.47;;;;;;;0.28;69.66;100989.23;1749468;82;20450;-39
2022/01/12 12:48:16;;;;;;;151.90;67.05;;;;;;;0.31;69.58;100995.32;1744150;82;21004;-39
2022/01/12 12:50:42;;;;;;;151.53;67.75;;;;;;;0.24;69.48;101002.95;1763730;80;20999;-42
2022/01/12 12:53:08;;;;;;;150.45;69.17;;;;;;;0.32;69.61;100999.63;1765408;80;21086;-40
2022/01/12 12:55:42;;;;;;;147.50;66.02;;;;;;;0.43;69.58;101002.80;1764806;80;21086;-40
2022/01/12 12:58:09;;;;;;;145.10;64.92;;;;;;;0.45;69.22;100999.80;1751164;82;21018;-40
2022/01/12 13:00:36;;;;;;;;;;;;;;;0.50;68.83;100996.86;1753979;82;21045;-40
2022/01/12 13:03:04;;;;;;;143.35;64.40;;;;;;;0.42;68.96;100994.58;1751222;82;20182;-40
2022/01/12 13:05:36;;;;;;;;;;;;;;;0.47;69.20;100996.37;1753873;82;21084;-40
2022/01/12 13:08:04;;;;;;;153.45;67.60;;;;;;;0.48;68.91;100989.50;1751085;82;20404;-39
2022/01/12 13:10:33;;;;;;;155.43;67.55;;;;;;;0.54;68.85;100986.55;1751492;82;21038;-38